createdAt,value
2018-06-19T00:01:23.643Z,101427.80
2018-06-19T00:03:52.579Z,101436.74
2018-06-19T00:06:21.586Z,101435.62
2018-06-19T00:08:50.566Z,101433.67
2018-06-19T00:11:19.516Z,101437.53
2018-06-19T00:13:48.490Z,101436.22
2018-06-19T00:16:17.415Z,101431.66
2018-06-19T00:18:50.577Z,101427.89
2018-06-19T00:21:29.069Z,101427.84
2018-06-19T00:23:58.085Z,101431.65
2018-06-19T00:26:27.097Z,101429.95
2018-06-19T00:28:56.139Z,101440.78
2018-06-19T00:31:25.073Z,101434.28
2018-06-19T00:33:54.101Z,101436.25
2018-06-19T00:36:23.058Z,101434.23
2018-06-19T00:38:51.995Z,101435.73
2018-06-19T00:41:20.914Z,101437.42
2018-06-19T00:43:49.882Z,101432.16
2018-06-19T00:46:20.225Z,101429.75
2018-06-19T00:48:49.192Z,101426.89
2018-06-19T00:51:18.168Z,101424.67
2018-06-19T00:53:47.092Z,101433.14
2018-06-19T00:56:26.892Z,101430.33
2018-06-19T00:58:55.819Z,101436.75
2018-06-19T01:01:24.757Z,101439.58
2018-06-19T01:03:53.676Z,101449.19
2018-06-19T01:06:22.598Z,101439.30
2018-06-19T01:08:51.498Z,101438.39
2018-06-19T01:11:20.431Z,101438.48
2018-06-19T01:13:49.313Z,101442.25
2018-06-19T01:16:18.209Z,101432.38
2018-06-19T01:18:47.101Z,101433.24
2018-06-19T01:21:16.028Z,101437.01
2018-06-19T01:23:44.857Z,101437.94
2018-06-19T01:26:13.747Z,101433.05
2018-06-19T01:28:42.666Z,101429.87
2018-06-19T01:31:11.627Z,101434.48
2018-06-19T01:33:41.454Z,101433.63
2018-06-19T01:36:10.357Z,101432.02
2018-06-19T01:38:39.295Z,101422.16
2018-06-19T01:41:08.209Z,101425.92
2018-06-19T01:43:37.168Z,101418.77
2018-06-19T01:46:06.148Z,101426.37
2018-06-19T01:48:35.049Z,101424.59
2018-06-19T01:51:03.964Z,101418.19
2018-06-19T01:53:32.875Z,101413.95
2018-06-19T01:56:01.762Z,101422.31
2018-06-19T01:58:30.663Z,101419.21
2018-06-19T02:00:59.608Z,101416.02
2018-06-19T02:03:28.525Z,101416.13
2018-06-19T02:05:57.421Z,101419.80
2018-06-19T02:08:26.374Z,101418.38
2018-06-19T02:10:55.265Z,101411.89
2018-06-19T02:13:24.145Z,101414.52
2018-06-19T02:15:53.038Z,101416.37
2018-06-19T02:18:21.967Z,101416.58
2018-06-19T02:20:50.901Z,101415.73
2018-06-19T02:23:19.833Z,101416.28
2018-06-19T02:25:48.739Z,101416.95
2018-06-19T02:28:18.864Z,101415.37
2018-06-19T02:30:47.759Z,101411.12
2018-06-19T02:33:16.682Z,101407.63
2018-06-19T02:35:45.621Z,101405.22
2018-06-19T02:38:14.578Z,101400.98
2018-06-19T02:40:43.608Z,101398.37
2018-06-19T02:43:12.833Z,101397.03
2018-06-19T02:45:41.756Z,101406.83
2018-06-19T02:48:11.234Z,101408.80
2018-06-19T02:50:40.209Z,101419.78
2018-06-19T02:53:09.100Z,101415.75
2018-06-19T02:55:38.041Z,101420.46
2018-06-19T02:58:06.920Z,101415.38
2018-06-19T03:00:35.882Z,101413.59
2018-06-19T03:03:04.796Z,101411.91
2018-06-19T03:05:33.654Z,101409.36
2018-06-19T03:08:02.680Z,101405.69
2018-06-19T03:10:31.586Z,101403.91
2018-06-19T03:13:00.435Z,101402.75
2018-06-19T03:15:29.325Z,101404.92
2018-06-19T03:17:58.238Z,101405.14
2018-06-19T03:20:27.105Z,101405.14
2018-06-19T03:22:55.974Z,101407.27
2018-06-19T03:25:24.821Z,101406.15
2018-06-19T03:27:53.677Z,101402.28
2018-06-19T03:30:22.685Z,101402.95
2018-06-19T03:32:51.551Z,101411.60
2018-06-19T03:35:20.481Z,101415.55
2018-06-19T03:37:49.380Z,101411.88
2018-06-19T03:40:18.285Z,101414.23
2018-06-19T03:42:47.213Z,101417.63
2018-06-19T03:45:16.138Z,101418.38
2018-06-19T03:47:45.586Z,101429.45
2018-06-19T03:50:14.497Z,101427.38
2018-06-19T03:52:43.386Z,101430.58
2018-06-19T03:55:12.249Z,101434.91
2018-06-19T03:57:41.170Z,101436.70
2018-06-19T04:00:10.147Z,101429.83
2018-06-19T04:02:39.051Z,101431.77
2018-06-19T04:05:07.981Z,101437.61
2018-06-19T04:07:36.884Z,101433.03
2018-06-19T04:10:05.840Z,101434.78
2018-06-19T04:12:34.709Z,101438.73
2018-06-19T04:15:03.901Z,101435.16
2018-06-19T04:17:37.010Z,101437.44
2018-06-19T04:20:06.169Z,101436.46
2018-06-19T04:22:35.060Z,101440.70
2018-06-19T04:25:04.171Z,101431.00
2018-06-19T04:27:33.219Z,101432.86
2018-06-19T04:30:02.590Z,101436.81
2018-06-19T04:32:36.278Z,101432.96
2018-06-19T04:35:05.686Z,101432.29
2018-06-19T04:37:34.669Z,101434.78
2018-06-19T04:40:03.655Z,101430.00
2018-06-19T04:42:32.667Z,101430.91
2018-06-19T04:45:01.674Z,101424.23
2018-06-19T04:47:31.225Z,101420.64
2018-06-19T04:50:00.181Z,101423.79
2018-06-19T04:52:30.122Z,101418.39
2018-06-19T04:54:58.974Z,101422.72
2018-06-19T04:57:27.829Z,101420.73
2018-06-19T04:59:58.091Z,101421.52
2018-06-19T05:02:26.980Z,101428.55
2018-06-19T05:04:56.260Z,101428.45
2018-06-19T05:07:25.388Z,101426.59
2018-06-19T05:09:55.801Z,101424.23
2018-06-19T05:12:24.701Z,101414.14
2018-06-19T05:14:53.661Z,101423.45
2018-06-19T05:17:24.066Z,101428.67
2018-06-19T05:19:54.637Z,101425.62
2018-06-19T05:22:23.492Z,101436.08
2018-06-19T05:24:52.374Z,101430.70
2018-06-19T05:27:21.241Z,101413.37
2018-06-19T05:29:50.423Z,101421.83
2018-06-19T05:32:20.656Z,101415.05
2018-06-19T05:34:49.615Z,101409.75
2018-06-19T05:37:20.390Z,101420.59
2018-06-19T05:39:49.219Z,101424.59
2018-06-19T05:42:18.162Z,101430.45
2018-06-19T05:44:47.070Z,101422.91
2018-06-19T05:47:15.989Z,101427.77
2018-06-19T05:49:45.233Z,101434.06
2018-06-19T05:52:14.710Z,101440.83
2018-06-19T05:54:43.596Z,101441.16
2018-06-19T05:57:12.493Z,101449.19
2018-06-19T05:59:41.377Z,101447.33
2018-06-19T06:02:10.280Z,101448.45
2018-06-19T06:04:39.159Z,101446.86
2018-06-19T06:07:08.061Z,101450.88
2018-06-19T06:09:36.925Z,101454.69
2018-06-19T06:12:05.976Z,101460.78
2018-06-19T06:14:34.844Z,101470.48
2018-06-19T06:17:03.788Z,101464.36
2018-06-19T06:19:32.645Z,101467.28
2018-06-19T06:22:01.549Z,101468.48
2018-06-19T06:24:30.544Z,101470.19
2018-06-19T06:26:59.461Z,101475.45
2018-06-19T06:29:28.279Z,101468.97
2018-06-19T06:31:57.150Z,101483.30
2018-06-19T06:34:26.122Z,101471.42
2018-06-19T06:36:55.083Z,101480.55
2018-06-19T06:39:23.923Z,101483.03
2018-06-19T06:41:53.733Z,101481.25
2018-06-19T06:44:22.640Z,101492.33
2018-06-19T06:46:51.569Z,101479.83
2018-06-19T06:49:20.424Z,101488.13
2018-06-19T06:51:49.316Z,101480.47
2018-06-19T06:54:18.168Z,101484.76
2018-06-19T06:56:47.025Z,101491.37
2018-06-19T06:59:15.882Z,101491.96
2018-06-19T07:01:44.791Z,101491.29
2018-06-19T07:04:13.746Z,101498.42
2018-06-19T07:06:42.644Z,101498.70
2018-06-19T07:09:12.304Z,101495.55
2018-06-19T07:11:41.482Z,101497.80
2018-06-19T07:14:10.447Z,101492.11
2018-06-19T07:16:39.422Z,101509.17
2018-06-19T07:19:08.420Z,101516.74
2018-06-19T07:21:37.248Z,101523.86
2018-06-19T07:24:06.205Z,101519.23
2018-06-19T07:26:35.181Z,101520.00
2018-06-19T07:29:04.119Z,101531.53
2018-06-19T07:31:33.041Z,101534.34
2018-06-19T07:34:01.981Z,101530.33
2018-06-19T07:36:30.895Z,101527.12
2018-06-19T07:38:59.813Z,101528.37
2018-06-19T07:41:28.717Z,101531.34
2018-06-19T07:43:57.661Z,101536.61
2018-06-19T07:46:26.626Z,101546.05
2018-06-19T07:48:55.723Z,101545.08
2018-06-19T07:51:24.621Z,101542.17
2018-06-19T07:53:53.444Z,101543.77
2018-06-19T07:56:22.364Z,101546.84
2018-06-19T07:58:51.274Z,101541.02
2018-06-19T08:01:20.257Z,101542.20
2018-06-19T08:03:49.315Z,101540.05
2018-06-19T08:06:18.231Z,101545.65
2018-06-19T08:08:47.277Z,101550.75
2018-06-19T08:11:16.351Z,101558.64
2018-06-19T08:13:45.320Z,101568.84
2018-06-19T08:16:14.400Z,101572.20
2018-06-19T08:18:43.300Z,101572.19
2018-06-19T08:21:12.246Z,101575.80
2018-06-19T08:23:41.140Z,101587.04
2018-06-19T08:26:10.046Z,101585.41
2018-06-19T08:28:38.899Z,101589.19
2018-06-19T08:31:07.911Z,101595.63
2018-06-19T08:33:36.775Z,101589.69
2018-06-19T08:36:05.706Z,101601.52
2018-06-19T08:38:34.618Z,101608.24
2018-06-19T08:41:03.532Z,101605.94
2018-06-19T08:43:32.409Z,101595.35
2018-06-19T08:46:01.337Z,101604.16
2018-06-19T08:48:30.249Z,101606.40
2018-06-19T08:50:59.247Z,101604.12
2018-06-19T08:53:28.108Z,101600.22
2018-06-19T08:55:56.995Z,101607.94
2018-06-19T08:58:26.049Z,101609.70
2018-06-19T09:00:55.123Z,101607.62
2018-06-19T09:03:24.037Z,101616.06
2018-06-19T09:05:52.975Z,101624.43
2018-06-19T09:08:21.934Z,101626.43
2018-06-19T09:10:50.858Z,101629.53
2018-06-19T09:13:19.737Z,101639.11
2018-06-19T09:15:48.584Z,101635.14
2018-06-19T09:18:17.493Z,101636.23
2018-06-19T09:20:46.388Z,101647.09
2018-06-19T09:23:15.327Z,101646.07
2018-06-19T09:25:44.194Z,101643.30
2018-06-19T09:28:13.125Z,101643.31
2018-06-19T09:30:42.047Z,101645.55
2018-06-19T09:33:10.990Z,101643.27
2018-06-19T09:35:39.927Z,101639.52
2018-06-19T09:43:26.201Z,101642.88
2018-06-19T09:45:55.129Z,101646.69
2018-06-19T09:48:24.060Z,101648.19
2018-06-19T09:50:53.091Z,101643.54
2018-06-19T09:53:22.029Z,101641.25
2018-06-19T09:55:50.996Z,101644.83
2018-06-19T09:58:19.931Z,101647.13
2018-06-19T10:00:48.871Z,101643.63
2018-06-19T10:03:17.870Z,101645.91
2018-06-19T10:05:46.966Z,101647.64
2018-06-19T10:08:15.961Z,101645.09
2018-06-19T10:10:44.865Z,101644.55
2018-06-19T10:13:13.781Z,101650.59
2018-06-19T10:15:42.735Z,101650.33
2018-06-19T10:18:12.939Z,101663.05
2018-06-19T10:20:41.839Z,101663.52
2018-06-19T10:23:10.730Z,101665.55
2018-06-19T10:25:39.645Z,101660.42
2018-06-19T10:28:08.560Z,101668.15
2018-06-19T10:30:37.465Z,101673.92
2018-06-19T10:33:06.577Z,101675.20
2018-06-19T10:35:35.482Z,101678.48
2018-06-19T10:38:04.302Z,101669.05
2018-06-19T10:40:33.263Z,101668.34
2018-06-19T10:43:02.159Z,101679.21
2018-06-19T10:45:31.145Z,101667.93
2018-06-19T10:48:00.091Z,101666.15
2018-06-19T10:50:29.017Z,101670.02
2018-06-19T10:52:57.916Z,101671.34
2018-06-19T10:55:26.921Z,101671.72
2018-06-19T10:57:55.906Z,101670.97
2018-06-19T11:00:24.905Z,101673.41
2018-06-19T11:02:53.886Z,101677.13
2018-06-19T11:05:22.827Z,101674.98
2018-06-19T11:07:51.960Z,101679.52
2018-06-19T11:10:20.875Z,101681.34
2018-06-19T11:12:49.802Z,101672.77
2018-06-19T11:15:18.661Z,101671.92
2018-06-19T11:17:47.504Z,101667.62
2018-06-19T11:20:16.421Z,101664.41
2018-06-19T11:22:45.313Z,101666.28
2018-06-19T11:25:14.167Z,101668.92
2018-06-19T11:27:43.112Z,101671.23
2018-06-19T11:30:11.989Z,101666.66
2018-06-19T11:32:40.877Z,101665.64
2018-06-19T11:35:09.805Z,101670.69
2018-06-19T11:37:38.795Z,101674.47
2018-06-19T11:40:07.743Z,101669.78
2018-06-19T11:42:36.670Z,101666.58
2018-06-19T11:45:05.604Z,101667.36
2018-06-19T11:47:34.498Z,101663.38
2018-06-19T11:50:03.507Z,101654.10
2018-06-19T11:52:32.456Z,101665.05
2018-06-19T11:55:01.499Z,101659.96
2018-06-19T11:57:30.469Z,101659.25
2018-06-19T11:59:59.455Z,101665.41
2018-06-19T12:02:28.372Z,101670.68
2018-06-19T12:04:57.257Z,101666.20
2018-06-19T12:07:26.259Z,101666.66
2018-06-19T12:09:55.196Z,101671.38
2018-06-19T12:12:24.118Z,101676.50
2018-06-19T12:14:52.977Z,101678.55
2018-06-19T12:17:21.855Z,101679.59
2018-06-19T12:19:50.759Z,101680.48
2018-06-19T12:22:19.691Z,101691.48
2018-06-19T12:24:48.619Z,101680.73
2018-06-19T12:27:17.577Z,101685.44
2018-06-19T12:29:46.551Z,101690.19
2018-06-19T12:32:15.460Z,101686.41
2018-06-19T12:34:44.368Z,101699.56
2018-06-19T12:37:13.190Z,101700.20
2018-06-19T12:39:42.041Z,101697.17
2018-06-19T12:42:10.923Z,101700.91
2018-06-19T12:44:39.836Z,101707.08
2018-06-19T12:47:08.749Z,101712.73
2018-06-19T12:49:48.598Z,101706.70
2018-06-19T12:52:28.572Z,101709.43
2018-06-19T12:55:09.668Z,101698.50
2018-06-19T12:57:38.553Z,101704.33
2018-06-19T13:00:07.834Z,101703.39
2018-06-19T13:02:36.860Z,101704.36
2018-06-19T13:06:16.272Z,101705.63
2018-06-19T13:08:45.299Z,101711.93
2018-06-19T13:11:14.235Z,101711.75
2018-06-19T13:13:54.110Z,101717.45
2018-06-19T13:16:33.988Z,101719.30
2018-06-19T13:19:13.867Z,101719.32
2018-06-19T13:21:42.813Z,101722.91
2018-06-19T13:24:11.751Z,101733.18
2018-06-19T13:26:40.589Z,101737.44
2018-06-19T13:30:16.688Z,101732.13
2018-06-19T13:32:45.558Z,101733.77
2018-06-19T13:35:14.409Z,101732.45
2018-06-19T13:37:43.356Z,101730.91
2018-06-19T13:41:24.893Z,101729.27
2018-06-19T13:44:06.575Z,101732.77
2018-06-19T13:46:35.486Z,101728.99
2018-06-19T13:49:04.384Z,101730.41
2018-06-19T13:51:33.289Z,101729.34
2018-06-19T13:54:02.248Z,101731.42
2018-06-19T13:57:45.045Z,101733.26
2018-06-19T14:00:20.792Z,101728.31
2018-06-19T14:02:49.717Z,101735.58
2018-06-19T14:05:19.558Z,101736.86
2018-06-19T14:08:05.536Z,101735.03
2018-06-19T14:10:45.559Z,101727.93
2018-06-19T14:13:14.435Z,101732.77
2018-06-19T14:15:46.156Z,101738.50
2018-06-19T14:18:16.204Z,101744.28
2018-06-19T14:20:45.131Z,101748.55
2018-06-19T14:23:14.393Z,101748.94
2018-06-19T14:25:43.300Z,101755.84
2018-06-19T14:28:13.221Z,101761.94
2018-06-19T14:30:42.151Z,101764.12
2018-06-19T14:33:11.086Z,101766.54
2018-06-19T14:35:39.947Z,101766.06
2018-06-19T14:43:36.623Z,101771.20
2018-06-19T14:46:05.555Z,101767.59
2018-06-19T14:48:34.447Z,101772.39
2018-06-19T14:51:03.403Z,101778.81
2018-06-19T14:53:32.267Z,101777.70
2018-06-19T14:56:01.337Z,101769.88
2018-06-19T14:58:30.329Z,101778.17
2018-06-19T15:00:59.269Z,101771.25
2018-06-19T15:03:28.236Z,101779.23
2018-06-19T15:05:57.152Z,101791.62
2018-06-19T15:08:26.085Z,101780.62
2018-06-19T15:10:54.985Z,101777.66
2018-06-19T15:13:23.872Z,101786.85
2018-06-19T15:15:52.777Z,101781.66
2018-06-19T15:18:22.827Z,101782.19
2018-06-19T15:20:51.685Z,101783.05
2018-06-19T15:23:20.568Z,101785.23
2018-06-19T15:25:49.462Z,101780.08
2018-06-19T15:28:18.314Z,101780.56
2018-06-19T15:30:47.242Z,101787.97
2018-06-19T15:33:16.121Z,101792.20
2018-06-19T15:35:44.983Z,101788.45
2018-06-19T15:38:13.907Z,101790.98
2018-06-19T15:40:43.198Z,101796.91
2018-06-19T15:43:12.106Z,101798.36
2018-06-19T15:45:41.018Z,101796.15
2018-06-19T15:48:11.151Z,101798.08
2018-06-19T15:50:40.038Z,101791.92
2018-06-19T15:53:08.978Z,101797.88
2018-06-19T15:55:37.947Z,101802.83
2018-06-19T15:58:06.844Z,101795.22
2018-06-19T16:00:35.696Z,101793.88
2018-06-19T16:03:04.728Z,101801.86
2018-06-19T16:05:33.821Z,101800.05
2018-06-19T16:08:08.097Z,101796.64
2018-06-19T16:10:37.090Z,101797.23
2018-06-19T16:13:06.245Z,101792.52
2018-06-19T16:15:35.177Z,101786.84
2018-06-19T16:18:04.053Z,101788.78
2018-06-19T16:20:32.998Z,101795.67
2018-06-19T16:23:01.948Z,101799.45
2018-06-19T16:25:30.837Z,101793.28
2018-06-19T16:27:59.689Z,101795.12
2018-06-19T16:30:29.497Z,101792.33
2018-06-19T16:32:58.436Z,101795.47
2018-06-19T16:35:27.410Z,101798.02
2018-06-19T16:37:56.482Z,101796.66
2018-06-19T16:40:25.357Z,101800.77
2018-06-19T16:42:54.241Z,101809.11
2018-06-19T16:45:23.123Z,101804.48
2018-06-19T16:47:52.013Z,101811.12
2018-06-19T16:50:20.926Z,101807.52
2018-06-19T16:52:49.814Z,101807.16
2018-06-19T16:55:18.729Z,101813.19
2018-06-19T16:57:47.675Z,101811.49
2018-06-19T17:00:16.648Z,101812.45
2018-06-19T17:02:45.742Z,101813.88
2018-06-19T17:05:14.746Z,101819.94
2018-06-19T17:07:43.777Z,101809.04
2018-06-19T17:10:13.945Z,101813.61
2018-06-19T17:12:43.420Z,101818.44
2018-06-19T17:15:12.498Z,101815.95
2018-06-19T17:17:41.430Z,101815.73
2018-06-19T17:20:10.424Z,101819.59
2018-06-19T17:22:39.549Z,101820.78
2018-06-19T17:25:08.698Z,101823.22
2018-06-19T17:27:37.754Z,101822.22
2018-06-19T17:30:06.735Z,101814.01
2018-06-19T17:32:35.579Z,101815.34
2018-06-19T17:35:04.922Z,101822.72
2018-06-19T17:37:33.857Z,101828.21
2018-06-19T17:40:02.737Z,101823.01
2018-06-19T17:42:31.622Z,101822.02
2018-06-19T17:45:00.574Z,101822.39
2018-06-19T17:47:29.469Z,101820.58
2018-06-19T17:49:58.353Z,101810.19
2018-06-19T17:52:27.230Z,101807.65
2018-06-19T17:54:56.139Z,101810.00
2018-06-19T17:57:25.045Z,101818.70
2018-06-19T17:59:54.042Z,101814.92
2018-06-19T18:02:22.925Z,101816.14
2018-06-19T18:04:51.807Z,101816.20
2018-06-19T18:07:20.787Z,101816.53
2018-06-19T18:09:49.787Z,101814.93
2018-06-19T18:12:18.702Z,101814.89
2018-06-19T18:14:47.634Z,101816.42
2018-06-19T18:17:16.551Z,101815.98
2018-06-19T18:19:45.465Z,101813.81
2018-06-19T18:22:14.477Z,101825.17
2018-06-19T18:24:43.440Z,101822.25
2018-06-19T18:27:12.245Z,101818.97
2018-06-19T18:29:41.421Z,101818.84
2018-06-19T18:32:12.316Z,101816.45
2018-06-19T18:34:41.225Z,101814.59
2018-06-19T18:37:10.790Z,101815.63
2018-06-19T18:39:39.681Z,101819.16
2018-06-19T18:42:08.585Z,101822.86
2018-06-19T18:44:39.799Z,101819.33
2018-06-19T18:47:11.073Z,101822.83
2018-06-19T18:49:48.367Z,101825.14
2018-06-19T18:52:28.378Z,101834.13
2018-06-19T18:55:16.878Z,101834.81
2018-06-19T18:57:45.872Z,101836.09
2018-06-19T19:00:14.822Z,101834.50
2018-06-19T19:02:43.817Z,101833.03
2018-06-19T19:05:12.710Z,101827.64
2018-06-19T19:07:41.734Z,101832.45
2018-06-19T19:10:17.517Z,101831.97
2018-06-19T19:12:46.794Z,101839.59
2018-06-19T19:15:20.992Z,101837.67
2018-06-19T19:17:55.282Z,101845.91
2018-06-19T19:20:24.185Z,101845.91
2018-06-19T19:22:53.095Z,101844.02
2018-06-19T19:25:21.919Z,101844.84
2018-06-19T19:27:55.869Z,101845.61
2018-06-19T19:30:24.772Z,101853.91
2018-06-19T19:32:59.460Z,101859.05
2018-06-19T19:35:28.389Z,101864.63
2018-06-19T19:38:02.573Z,101868.02
2018-06-19T19:40:31.515Z,101863.30
2018-06-19T19:43:00.361Z,101876.89
2018-06-19T19:45:29.299Z,101877.58
2018-06-19T19:48:03.190Z,101881.45
2018-06-19T19:50:32.103Z,101881.73
2018-06-19T19:53:00.989Z,101882.95
2018-06-19T19:55:29.853Z,101888.24
2018-06-19T19:58:04.073Z,101885.42
2018-06-19T20:00:32.942Z,101895.09
2018-06-19T20:03:01.791Z,101893.12
2018-06-19T20:05:30.662Z,101895.75
2018-06-19T20:07:59.534Z,101899.31
2018-06-19T20:10:28.506Z,101901.48
2018-06-19T20:12:57.730Z,101898.95
2018-06-19T20:15:26.646Z,101903.47
2018-06-19T20:17:55.746Z,101908.27
2018-06-19T20:20:24.797Z,101901.83
2018-06-19T20:22:53.761Z,101903.70
2018-06-19T20:25:22.647Z,101898.48
2018-06-19T20:27:51.514Z,101900.53
2018-06-19T20:30:20.362Z,101905.77
2018-06-19T20:32:49.272Z,101914.80
2018-06-19T20:35:18.192Z,101918.19
2018-06-19T20:37:47.012Z,101925.20
2018-06-19T20:40:15.966Z,101919.20
2018-06-19T20:42:44.848Z,101920.59
2018-06-19T20:45:13.693Z,101915.74
2018-06-19T20:47:42.618Z,101915.74
2018-06-19T20:50:11.524Z,101920.53
2018-06-19T20:52:40.386Z,101914.19
2018-06-19T20:55:09.247Z,101925.69
2018-06-19T20:57:38.147Z,101924.58
2018-06-19T21:00:07.195Z,101928.44
2018-06-19T21:02:36.073Z,101923.80
2018-06-19T21:05:04.963Z,101920.64
2018-06-19T21:07:33.928Z,101921.41
2018-06-19T21:10:02.835Z,101924.53
2018-06-19T21:12:31.688Z,101928.10
2018-06-19T21:15:01.104Z,101923.05
2018-06-19T21:17:29.930Z,101918.63
2018-06-19T21:19:58.777Z,101924.62
2018-06-19T21:22:27.677Z,101917.29
2018-06-19T21:24:56.598Z,101927.45
2018-06-19T21:27:25.476Z,101928.84
2018-06-19T21:29:54.356Z,101920.80
2018-06-19T21:32:23.300Z,101929.48
2018-06-19T21:34:52.176Z,101929.45
2018-06-19T21:37:21.054Z,101932.88
2018-06-19T21:39:49.961Z,101937.45
2018-06-19T21:42:18.876Z,101939.69
2018-06-19T21:44:47.717Z,101939.00
2018-06-19T21:47:16.633Z,101942.95
2018-06-19T21:49:45.501Z,101937.95
2018-06-19T21:52:14.454Z,101934.23
2018-06-19T21:54:43.392Z,101944.23
2018-06-19T21:57:12.226Z,101941.75
2018-06-19T21:59:41.170Z,101939.97
2018-06-19T22:02:10.150Z,101944.65
2018-06-19T22:04:39.085Z,101939.61
2018-06-19T22:07:07.974Z,101935.43
2018-06-19T22:09:36.845Z,101933.88
2018-06-19T22:12:05.854Z,101938.75
2018-06-19T22:14:34.745Z,101933.10
2018-06-19T22:17:03.683Z,101938.55
2018-06-19T22:19:32.575Z,101925.91
2018-06-19T22:22:01.445Z,101929.80
2018-06-19T22:24:30.325Z,101925.59
2018-06-19T22:26:59.445Z,101921.80
2018-06-19T22:29:32.147Z,101928.20
2018-06-19T22:32:01.281Z,101928.67
2018-06-19T22:34:30.518Z,101925.20
2018-06-19T22:36:59.445Z,101919.56
2018-06-19T22:39:28.398Z,101920.95
2018-06-19T22:41:57.317Z,101927.67
2018-06-19T22:44:26.278Z,101920.66
2018-06-19T22:46:55.989Z,101918.31
2018-06-19T22:49:25.093Z,101916.61
2018-06-19T22:51:54.080Z,101907.63
2018-06-19T22:54:22.868Z,101914.42
2018-06-19T22:56:51.799Z,101912.80
2018-06-19T22:59:20.770Z,101917.38
2018-06-19T23:01:49.737Z,101914.97
2018-06-19T23:04:18.712Z,101908.30
2018-06-19T23:06:47.622Z,101910.39
2018-06-19T23:09:16.509Z,101904.88
2018-06-19T23:11:45.400Z,101902.97
2018-06-19T23:14:14.296Z,101902.58
2018-06-19T23:16:43.241Z,101903.32
2018-06-19T23:19:12.167Z,101911.17
2018-06-19T23:21:41.032Z,101905.38
2018-06-19T23:24:09.922Z,101905.63
2018-06-19T23:26:38.810Z,101905.77
2018-06-19T23:29:07.667Z,101910.17
2018-06-19T23:31:36.597Z,101910.38
2018-06-19T23:34:05.523Z,101904.73
2018-06-19T23:36:34.404Z,101899.55
2018-06-19T23:39:03.394Z,101900.61
2018-06-19T23:41:32.288Z,101905.48
2018-06-19T23:44:01.173Z,101908.56
2018-06-19T23:46:30.028Z,101904.73
2018-06-19T23:48:58.919Z,101906.89
2018-06-19T23:51:27.887Z,101906.78
2018-06-19T23:53:56.777Z,101904.67
2018-06-19T23:56:25.630Z,101902.91
2018-06-19T23:58:54.592Z,101896.12
